Time;durP1;ratioP1;P1;durP2;ratioP2;P2;SDS_P1;SDS_P2;PMS_P1;PMS_P2;Temp;Humidity;BMP_temperature;BMP_pressure;BME280_temperature;BME280_humidity;BME280_pressure;Samples;Min_cycle;Max_cycle;Signal;HPM_P1;HPM_P2
2023/01/21 00:02:09;;;;;;;0.88;0.88;;;-6.10;93.10;;;;;;5053995;28;20174;-69
2023/01/21 00:04:36;;;;;;;0.80;0.80;;;-6.10;93.30;;;;;;5054110;28;20205;-70
2023/01/21 00:07:06;;;;;;;0.80;0.80;;;-6.20;93.50;;;;;;5054208;28;20174;-70
2023/01/21 00:09:32;;;;;;;0.60;0.60;;;-6.20;93.90;;;;;;5054127;28;20602;-68
2023/01/21 00:12:01;;;;;;;0.60;0.60;;;-6.00;94.00;;;;;;5053978;28;20239;-71
2023/01/21 00:14:27;;;;;;;0.68;0.68;;;-6.00;93.60;;;;;;5053930;28;20635;-69
2023/01/21 00:16:53;;;;;;;0.75;0.75;;;-6.00;93.30;;;;;;5053984;28;20253;-68
2023/01/21 00:19:19;;;;;;;0.50;0.50;;;-6.00;93.20;;;;;;5053635;28;20767;-71
2023/01/21 00:21:45;;;;;;;0.80;0.80;;;-6.10;92.90;;;;;;5053947;28;20220;-69
2023/01/21 00:24:11;;;;;;;0.90;0.90;;;-6.20;92.80;;;;;;5053845;28;20447;-70
2023/01/21 00:26:36;;;;;;;0.70;0.70;;;-6.20;92.90;;;;;;5053703;28;20174;-69
2023/01/21 00:29:03;;;;;;;0.60;0.60;;;-6.10;93.10;;;;;;5053633;28;20261;-71
2023/01/21 00:31:28;;;;;;;0.65;0.65;;;-6.00;93.10;;;;;;5053874;28;20209;-71
2023/01/21 00:33:54;;;;;;;0.60;0.60;;;-6.10;93.20;;;;;;5053587;28;20210;-71
2023/01/21 00:36:21;;;;;;;0.67;0.67;;;-6.00;93.40;;;;;;5053706;28;20170;-69
2023/01/21 00:38:49;;;;;;;0.73;0.73;;;-6.00;93.40;;;;;;5053485;28;20190;-68
2023/01/21 00:41:16;;;;;;;0.70;0.70;;;-6.10;93.20;;;;;;5053505;28;20181;-71
2023/01/21 00:43:42;;;;;;;0.60;0.60;;;-6.10;93.20;;;;;;5053292;28;20261;-68
2023/01/21 00:46:09;;;;;;;0.80;0.80;;;-6.10;93.20;;;;;;5053537;28;20174;-68
2023/01/21 00:48:35;;;;;;;0.60;0.60;;;-6.10;93.30;;;;;;5053496;28;20190;-69
2023/01/21 00:51:01;;;;;;;0.80;0.80;;;-6.00;93.30;;;;;;5053408;28;20220;-69
2023/01/21 00:53:30;;;;;;;0.63;0.63;;;-6.00;93.20;;;;;;5053146;28;20721;-69
2023/01/21 00:56:04;;;;;;;0.63;0.63;;;-6.00;93.10;;;;;;5053349;28;20627;-71
2023/01/21 00:58:30;;;;;;;1.27;1.27;;;-6.10;93.00;;;;;;5053202;28;20201;-68
2023/01/21 01:01:12;;;;;;;0.50;0.50;;;-6.20;92.80;;;;;;5059238;28;20284;-69
2023/01/21 01:03:39;;;;;;;0.60;0.60;;;-6.20;92.70;;;;;;5059934;28;20871;-70
2023/01/21 01:06:08;;;;;;;0.60;0.60;;;-6.30;92.60;;;;;;5060153;28;20188;-70
2023/01/21 01:08:35;;;;;;;0.80;0.80;;;-6.30;93.00;;;;;;5060102;28;20228;-70
2023/01/21 01:11:01;;;;;;;0.57;0.57;;;-6.40;93.20;;;;;;5060124;28;20178;-70
2023/01/21 01:13:27;;;;;;;0.67;0.67;;;-6.40;93.20;;;;;;5060251;28;20201;-67
2023/01/21 01:15:54;;;;;;;0.85;0.85;;;-6.40;93.20;;;;;;5059728;28;20408;-70
2023/01/21 01:18:21;;;;;;;0.65;0.65;;;-6.30;93.20;;;;;;5059937;28;20273;-70
2023/01/21 01:20:47;;;;;;;0.70;0.70;;;-6.30;93.20;;;;;;5059741;28;20215;-71
2023/01/21 01:23:13;;;;;;;0.60;0.60;;;-6.30;93.40;;;;;;5059666;28;20671;-69
2023/01/21 01:25:39;;;;;;;0.80;0.80;;;-6.20;93.40;;;;;;5059877;28;20951;-70
2023/01/21 01:28:04;;;;;;;1.07;1.07;;;-6.20;93.40;;;;;;5059751;28;20186;-70
2023/01/21 01:30:30;;;;;;;0.70;0.70;;;-6.20;93.70;;;;;;5059870;28;20416;-68
2023/01/21 01:32:56;;;;;;;0.75;0.75;;;-6.10;93.70;;;;;;5059562;28;20174;-71
2023/01/21 01:35:22;;;;;;;1.10;1.10;;;-6.10;93.60;;;;;;5059655;28;20181;-70
2023/01/21 01:37:48;;;;;;;0.60;0.60;;;-6.00;93.50;;;;;;5059651;28;20173;-71
2023/01/21 01:40:13;;;;;;;0.57;0.57;;;-6.10;93.30;;;;;;5059677;28;20253;-70
2023/01/21 01:42:39;;;;;;;0.63;0.63;;;-6.20;92.90;;;;;;5059465;28;20261;-68
2023/01/21 01:45:15;;;;;;;0.60;0.60;;;-6.20;92.70;;;;;;5059671;28;20455;-69
2023/01/21 01:47:49;;;;;;;0.60;0.60;;;-6.40;92.60;;;;;;5059752;28;20173;-68
2023/01/21 01:50:18;;;;;;;0.70;0.70;;;-6.30;92.90;;;;;;5059589;28;20158;-69
2023/01/21 01:52:44;;;;;;;0.80;0.80;;;-6.30;93.10;;;;;;5059469;28;20170;-68
2023/01/21 01:55:14;;;;;;;1.75;1.75;;;-6.20;93.30;;;;;;5059723;28;20179;-70
2023/01/21 01:57:44;;;;;;;0.60;0.60;;;-6.10;93.40;;;;;;5059594;28;20170;-69
2023/01/21 02:00:11;;;;;;;0.60;0.60;;;-6.20;93.30;;;;;;5059467;28;20158;-71
2023/01/21 02:02:39;;;;;;;0.52;0.52;;;-6.10;93.50;;;;;;5059188;28;20253;-71
2023/01/21 02:05:09;;;;;;;0.68;0.68;;;-6.10;93.60;;;;;;5059565;28;20213;-68
2023/01/21 02:07:41;;;;;;;0.77;0.77;;;-6.10;93.70;;;;;;5059495;28;20565;-70
2023/01/21 02:10:09;;;;;;;0.60;0.60;;;-6.10;93.70;;;;;;5059480;28;20205;-68
2023/01/21 02:12:37;;;;;;;1.30;1.30;;;-6.10;93.60;;;;;;5054945;28;20206;-70
2023/01/21 02:15:04;;;;;;;0.63;0.63;;;-6.10;93.50;;;;;;5056045;28;20197;-68
2023/01/21 02:17:45;;;;;;;0.70;0.70;;;-6.10;93.40;;;;;;5056085;28;20174;-68
2023/01/21 02:20:40;;;;;;;0.70;0.70;;;-6.10;93.30;;;;;;5056068;28;20560;-71
2023/01/21 02:23:17;;;;;;;0.68;0.68;;;-6.10;93.40;;;;;;5054561;28;20674;-70
2023/01/21 02:26:11;;;;;;;0.50;0.50;;;-6.10;93.50;;;;;;5056358;28;20180;-68
2023/01/21 02:28:45;;;;;;;0.75;0.75;;;-6.10;93.60;;;;;;5056082;28;20200;-71
2023/01/21 02:31:46;;;;;;;0.90;0.90;;;-6.10;93.60;;;;;;5055829;28;20170;-71
2023/01/21 02:34:31;;;;;;;0.60;0.60;;;-6.10;93.50;;;;;;5055928;28;20182;-68
2023/01/21 02:37:00;;;;;;;1.02;1.02;;;-6.10;93.30;;;;;;5055902;28;20182;-67
2023/01/21 02:39:41;;;;;;;0.50;0.50;;;-6.20;93.10;;;;;;5054373;28;20289;-68
2023/01/21 02:42:19;;;;;;;0.70;0.70;;;-6.30;92.90;;;;;;5055550;28;20504;-71
2023/01/21 02:45:12;;;;;;;0.70;0.70;;;-6.30;92.90;;;;;;5055807;28;20624;-71
2023/01/21 02:48:04;;;;;;;0.73;0.73;;;-6.30;93.10;;;;;;5054411;28;20170;-70
2023/01/21 02:50:42;;;;;;;0.77;0.77;;;-6.20;93.30;;;;;;5055804;28;20171;-70
2023/01/21 02:53:22;;;;;;;0.80;0.80;;;-6.10;93.40;;;;;;5055405;28;20257;-69
2023/01/21 02:55:48;;;;;;;0.70;0.70;;;-6.10;93.40;;;;;;5055663;28;20166;-71
2023/01/21 02:58:16;;;;;;;0.60;0.60;;;-6.10;93.40;;;;;;5055558;28;20596;-71
2023/01/21 03:00:48;;;;;;;0.80;0.80;;;-6.20;93.70;;;;;;5055781;28;20174;-67
2023/01/21 03:03:38;;;;;;;0.50;0.50;;;-6.20;93.40;;;;;;5055101;28;20573;-69
2023/01/21 03:06:29;;;;;;;0.50;0.50;;;-6.10;93.40;;;;;;5055467;28;20175;-68
2023/01/21 03:09:13;;;;;;;0.90;0.90;;;-6.10;93.50;;;;;;5055202;28;20285;-71
2023/01/21 03:11:42;;;;;;;0.75;0.75;;;-6.10;93.60;;;;;;5055001;28;20178;-71
2023/01/21 03:17:23;;;;;;;0.93;0.93;;;-6.10;93.50;;;;;;5055239;28;20197;-71
2023/01/21 03:20:01;;;;;;;0.68;0.68;;;-6.10;93.10;;;;;;5054923;28;20278;-71
2023/01/21 03:22:31;;;;;;;0.60;0.60;;;-6.10;92.90;;;;;;5054581;28;20187;-71
2023/01/21 03:24:58;;;;;;;0.65;0.65;;;-6.20;92.90;;;;;;5055023;28;20300;-70
2023/01/21 03:27:27;;;;;;;0.60;0.60;;;-6.30;92.90;;;;;;5054848;28;20170;-68
2023/01/21 03:29:58;;;;;;;0.73;0.73;;;-6.30;93.30;;;;;;5054881;28;20186;-70
2023/01/21 03:32:27;;;;;;;0.68;0.68;;;-6.10;93.80;;;;;;5054994;28;20169;-68
2023/01/21 03:34:54;;;;;;;1.35;1.35;;;-6.00;94.00;;;;;;5054926;28;20661;-69
2023/01/21 03:37:40;;;;;;;0.70;0.70;;;-6.00;94.00;;;;;;5054757;28;20261;-68
2023/01/21 03:40:10;;;;;;;0.73;0.73;;;-5.90;94.00;;;;;;5054573;28;20158;-68
2023/01/21 03:42:35;;;;;;;0.60;0.60;;;-6.00;93.80;;;;;;5054393;28;20170;-70
2023/01/21 03:45:01;;;;;;;1.07;1.07;;;-6.00;94.10;;;;;;5054664;28;20228;-70
2023/01/21 03:47:32;;;;;;;0.90;0.90;;;-5.90;94.00;;;;;;5054548;28;20162;-70
2023/01/21 03:50:05;;;;;;;0.68;0.68;;;-5.90;93.70;;;;;;5054370;28;20479;-71
2023/01/21 03:52:31;;;;;;;0.57;0.57;;;-6.00;93.80;;;;;;5054287;28;20178;-70
2023/01/21 03:54:57;;;;;;;0.60;0.60;;;-6.00;93.70;;;;;;5054269;28;20569;-68
2023/01/21 03:57:23;;;;;;;0.65;0.65;;;-6.10;93.50;;;;;;5054260;28;20487;-67
2023/01/21 03:59:49;;;;;;;0.70;0.70;;;-6.10;93.40;;;;;;5054128;28;20734;-69
2023/01/21 04:02:19;;;;;;;0.60;0.60;;;-6.20;93.30;;;;;;5054031;28;20173;-71
2023/01/21 04:04:45;;;;;;;0.70;0.70;;;-6.20;93.30;;;;;;5054266;28;20220;-69
2023/01/21 04:07:12;;;;;;;0.70;0.70;;;-6.10;93.30;;;;;;5054187;28;20167;-69
2023/01/21 04:09:37;;;;;;;0.70;0.70;;;-6.10;93.20;;;;;;5053952;28;20221;-69
2023/01/21 04:12:03;;;;;;;0.60;0.60;;;-6.10;93.20;;;;;;5053825;28;20206;-68
2023/01/21 04:14:29;;;;;;;0.80;0.80;;;-6.20;93.00;;;;;;5054008;28;20178;-68
2023/01/21 04:16:55;;;;;;;0.70;0.70;;;-6.20;93.00;;;;;;5054021;28;20743;-71
2023/01/21 04:19:20;;;;;;;2.50;2.40;;;-6.10;93.00;;;;;;5053677;28;20209;-68
2023/01/21 04:21:46;;;;;;;0.70;0.70;;;-6.10;93.10;;;;;;5053565;28;20409;-70
2023/01/21 04:24:12;;;;;;;0.60;0.60;;;-6.10;93.20;;;;;;5053874;28;20201;-71
2023/01/21 04:26:37;;;;;;;0.80;0.80;;;-6.10;93.40;;;;;;5053840;28;20193;-71
2023/01/21 04:29:03;;;;;;;0.90;0.90;;;-6.00;93.50;;;;;;5053648;28;20190;-70
2023/01/21 04:31:28;;;;;;;0.60;0.60;;;-5.90;93.50;;;;;;5054007;28;20181;-71
2023/01/21 04:33:54;;;;;;;0.93;0.93;;;-5.90;93.50;;;;;;5053141;28;20285;-70
2023/01/21 04:36:20;;;;;;;0.60;0.60;;;-5.90;93.20;;;;;;5053563;28;20174;-70
2023/01/21 04:38:45;;;;;;;0.60;0.60;;;-5.90;93.00;;;;;;5053486;28;20190;-70
2023/01/21 04:41:11;;;;;;;1.20;1.20;;;-6.10;92.80;;;;;;5053603;28;20173;-70
2023/01/21 04:43:36;;;;;;;0.70;0.70;;;-6.20;92.90;;;;;;5053346;28;20659;-69
2023/01/21 04:46:02;;;;;;;0.60;0.60;;;-6.30;92.90;;;;;;5053687;28;20209;-68
2023/01/21 04:48:28;;;;;;;1.10;1.10;;;-6.30;93.10;;;;;;5053417;28;20216;-71
2023/01/21 04:50:53;;;;;;;0.80;0.80;;;-6.20;93.10;;;;;;5053039;28;20617;-68
2023/01/21 04:53:19;;;;;;;0.70;0.70;;;-6.10;93.00;;;;;;5053325;28;20170;-71
2023/01/21 04:55:44;;;;;;;1.00;1.00;;;-6.00;93.10;;;;;;5053425;28;20579;-69
2023/01/21 04:58:10;;;;;;;0.77;0.77;;;-6.10;93.20;;;;;;5053616;28;20189;-70
2023/01/21 05:00:35;;;;;;;0.60;0.60;;;-6.30;93.00;;;;;;5052070;28;20645;-71
2023/01/21 05:03:01;;;;;;;0.60;0.60;;;-6.40;93.20;;;;;;5053090;28;20170;-69
2023/01/21 05:05:27;;;;;;;0.80;0.80;;;-6.40;93.60;;;;;;5053242;28;20166;-69
2023/01/21 05:07:53;;;;;;;0.50;0.50;;;-6.30;93.80;;;;;;5053234;28;20166;-70
2023/01/21 05:10:19;;;;;;;0.75;0.75;;;-6.20;94.10;;;;;;5053260;28;20721;-71
2023/01/21 05:12:45;;;;;;;0.75;0.75;;;-6.20;93.90;;;;;;5053118;28;20639;-71
2023/01/21 05:15:11;;;;;;;0.80;0.80;;;-6.30;93.90;;;;;;5053360;28;20185;-71
2023/01/21 05:17:37;;;;;;;1.20;1.20;;;-6.20;93.90;;;;;;5053343;28;20401;-69
2023/01/21 05:20:03;;;;;;;0.60;0.60;;;-6.20;93.70;;;;;;5053010;28;20192;-69
2023/01/21 05:22:28;;;;;;;0.75;0.75;;;-6.20;93.60;;;;;;5052932;28;20412;-71
2023/01/21 05:24:54;;;;;;;0.60;0.60;;;-6.30;93.50;;;;;;5053087;28;20206;-68
2023/01/21 05:27:20;;;;;;;0.60;0.60;;;-6.30;93.50;;;;;;5053155;28;20166;-69
2023/01/21 05:29:46;;;;;;;0.50;0.50;;;-6.20;93.60;;;;;;5053138;28;20192;-70
2023/01/21 05:32:12;;;;;;;0.70;0.70;;;-6.20;93.40;;;;;;5053018;28;20570;-69
2023/01/21 05:34:37;;;;;;;0.87;0.87;;;-6.20;93.70;;;;;;5053238;28;20209;-68
2023/01/21 05:37:03;;;;;;;0.80;0.80;;;-6.10;93.80;;;;;;5053226;28;20204;-70
2023/01/21 05:39:29;;;;;;;0.60;0.60;;;-6.10;93.70;;;;;;5052920;28;20621;-71
2023/01/21 05:41:54;;;;;;;0.70;0.70;;;-6.00;93.60;;;;;;5052823;28;20186;-68
2023/01/21 05:44:20;;;;;;;0.60;0.60;;;-6.10;93.50;;;;;;5051718;28;20206;-68
2023/01/21 05:46:45;;;;;;;0.60;0.60;;;-6.10;93.40;;;;;;5055634;28;20173;-67
2023/01/21 05:49:11;;;;;;;2.17;2.03;;;-6.20;93.30;;;;;;5056865;28;20186;-71
2023/01/21 05:51:36;;;;;;;0.67;0.67;;;-6.30;93.30;;;;;;5056617;28;20249;-72
2023/01/21 05:54:02;;;;;;;0.57;0.57;;;-6.30;93.60;;;;;;5056485;28;20170;-68
2023/01/21 05:56:28;;;;;;;0.50;0.50;;;-6.10;93.80;;;;;;5056748;28;20207;-67
2023/01/21 05:58:53;;;;;;;0.80;0.80;;;-6.10;93.70;;;;;;5056433;28;20364;-68
2023/01/21 06:01:19;;;;;;;0.67;0.67;;;-6.00;93.80;;;;;;5056500;28;20204;-68
2023/01/21 06:03:44;;;;;;;0.70;0.70;;;-5.90;93.80;;;;;;5056366;28;20220;-69
2023/01/21 06:06:10;;;;;;;0.80;0.80;;;-5.90;93.70;;;;;;5056300;28;20249;-71
2023/01/21 06:08:36;;;;;;;0.77;0.77;;;-5.80;93.70;;;;;;5056524;28;20592;-71
2023/01/21 06:11:01;;;;;;;0.50;0.50;;;-5.90;93.50;;;;;;5056546;28;20173;-71
2023/01/21 06:13:27;;;;;;;0.67;0.67;;;-5.90;93.50;;;;;;5056259;28;20166;-68
2023/01/21 06:15:57;;;;;;;0.87;0.87;;;-6.00;93.40;;;;;;5056412;28;20174;-71
2023/01/21 06:18:23;;;;;;;0.80;0.80;;;-6.10;93.40;;;;;;5056280;28;20216;-70
2023/01/21 06:20:48;;;;;;;0.70;0.70;;;-6.10;93.80;;;;;;5056004;28;20239;-71
2023/01/21 06:23:14;;;;;;;0.70;0.70;;;-6.00;94.20;;;;;;5055997;28;20655;-70
2023/01/21 06:25:42;;;;;;;0.50;0.50;;;-6.00;94.40;;;;;;5056123;28;20175;-68
2023/01/21 06:28:11;;;;;;;0.75;0.75;;;-5.90;94.30;;;;;;5056057;28;20647;-68
2023/01/21 06:30:37;;;;;;;0.70;0.70;;;-5.80;93.90;;;;;;5055910;28;20205;-69
2023/01/21 06:33:03;;;;;;;0.67;0.67;;;-5.90;93.80;;;;;;5055739;28;20604;-71
2023/01/21 06:35:28;;;;;;;0.80;0.80;;;-5.90;93.90;;;;;;5055856;28;20397;-69
2023/01/21 06:37:54;;;;;;;0.77;0.77;;;-5.90;93.90;;;;;;5055732;28;20178;-69
2023/01/21 06:40:20;;;;;;;0.60;0.60;;;-5.90;94.40;;;;;;5055890;28;20166;-69
2023/01/21 06:42:46;;;;;;;0.73;0.73;;;-5.70;94.70;;;;;;5055456;28;20173;-70
2023/01/21 06:45:12;;;;;;;0.60;0.60;;;-5.60;94.70;;;;;;5055523;28;20456;-70
2023/01/21 06:47:42;;;;;;;0.50;0.50;;;-5.60;94.80;;;;;;5055687;28;20176;-70
2023/01/21 06:50:14;;;;;;;0.70;0.70;;;-5.60;94.60;;;;;;5055939;28;20166;-71
2023/01/21 06:52:42;;;;;;;0.70;0.70;;;-5.60;94.50;;;;;;5055466;28;20194;-69
2023/01/21 06:55:08;;;;;;;0.65;0.65;;;-5.70;94.10;;;;;;5054080;28;20696;-72
2023/01/21 06:57:34;;;;;;;0.50;0.50;;;-5.70;94.00;;;;;;5054755;28;20559;-67
2023/01/21 07:00:00;;;;;;;0.70;0.70;;;-5.80;93.80;;;;;;5055235;28;20190;-69
2023/01/21 07:02:26;;;;;;;0.90;0.90;;;-5.70;93.50;;;;;;5055316;28;20183;-69
2023/01/21 07:04:51;;;;;;;0.60;0.60;;;-5.80;93.40;;;;;;5055444;28;20198;-68
2023/01/21 07:07:17;;;;;;;0.83;0.83;;;-5.80;93.50;;;;;;5055281;28;20408;-71
2023/01/21 07:09:43;;;;;;;0.60;0.60;;;-5.80;93.60;;;;;;5055065;28;20266;-67
2023/01/21 07:12:09;;;;;;;1.00;1.00;;;-5.80;93.60;;;;;;5055074;28;20415;-71
2023/01/21 07:14:34;;;;;;;0.67;0.67;;;-5.80;93.90;;;;;;5055252;28;20404;-68
2023/01/21 07:17:00;;;;;;;0.60;0.60;;;-5.70;93.90;;;;;;5053766;28;20177;-69
2023/01/21 07:19:25;;;;;;;0.50;0.50;;;-5.60;94.00;;;;;;5054847;28;20213;-70
2023/01/21 07:21:53;;;;;;;1.07;1.07;;;-5.50;94.00;;;;;;5054971;28;20173;-70
2023/01/21 07:24:18;;;;;;;0.50;0.50;;;-5.50;94.00;;;;;;5054923;28;20220;-69
2023/01/21 07:26:44;;;;;;;0.53;0.53;;;-5.30;94.00;;;;;;5054983;28;20261;-72
2023/01/21 07:29:10;;;;;;;0.50;0.50;;;-5.20;93.80;;;;;;5054735;28;20179;-70
2023/01/21 07:31:35;;;;;;;0.73;0.73;;;-5.20;93.80;;;;;;5054810;28;20225;-69
2023/01/21 07:34:01;;;;;;;0.70;0.70;;;-5.10;93.50;;;;;;5054617;28;20409;-69
2023/01/21 07:36:27;;;;;;;0.50;0.50;;;-5.00;93.50;;;;;;5054725;28;20174;-71
2023/01/21 07:38:53;;;;;;;0.50;0.50;;;-4.90;93.50;;;;;;5054745;28;20503;-71
2023/01/21 07:41:19;;;;;;;0.57;0.57;;;-4.90;93.30;;;;;;5054554;28;20201;-70
2023/01/21 07:43:48;;;;;;;0.50;0.50;;;-4.90;93.10;;;;;;5054414;28;20206;-71
2023/01/21 07:46:18;;;;;;;0.52;0.52;;;-4.80;93.10;;;;;;5055107;28;20170;-70
2023/01/21 07:48:50;;;;;;;0.50;0.50;;;-4.60;93.60;;;;;;5054470;28;20552;-68
2023/01/21 07:51:19;;;;;;;0.40;0.40;;;-4.50;93.80;;;;;;5054479;28;20691;-70
2023/01/21 07:53:45;;;;;;;2.55;2.35;;;-4.40;93.80;;;;;;5053026;28;20600;-71
2023/01/21 07:56:10;;;;;;;0.50;0.50;;;-4.50;93.10;;;;;;5054457;28;20197;-71
2023/01/21 07:58:37;;;;;;;1.27;1.27;;;-4.50;93.60;;;;;;5054489;28;20441;-69
2023/01/21 08:01:07;;;;;;;0.65;0.65;;;-4.30;94.20;;;;;;5054424;28;20173;-68
2023/01/21 08:03:35;;;;;;;0.50;0.50;;;-4.10;94.40;;;;;;5053997;28;20208;-69
2023/01/21 08:06:02;;;;;;;0.38;0.38;;;-3.80;94.40;;;;;;5054217;28;20173;-69
2023/01/21 08:08:27;;;;;;;0.50;0.50;;;-3.50;94.30;;;;;;5053753;28;20194;-68
2023/01/21 08:10:54;;;;;;;0.40;0.40;;;-3.20;93.80;;;;;;5053033;28;20580;-72
2023/01/21 08:13:20;;;;;;;1.50;1.30;;;-2.80;94.00;;;;;;5053859;28;20178;-69
2023/01/21 08:15:54;;;;;;;0.30;0.30;;;-2.10;93.50;;;;;;5053950;28;20178;-71
2023/01/21 08:18:21;;;;;;;0.50;0.50;;;-1.20;93.40;;;;;;5053775;28;20190;-68
2023/01/21 08:20:47;;;;;;;0.30;0.30;;;-0.50;91.80;;;;;;5053751;28;20190;-70
2023/01/21 08:23:13;;;;;;;0.40;0.40;;;0.30;91.60;;;;;;5053524;28;20179;-71
2023/01/21 08:25:38;;;;;;;0.40;0.40;;;1.30;90.20;;;;;;5053845;28;20230;-70
2023/01/21 08:28:04;;;;;;;0.40;0.40;;;2.30;85.10;;;;;;5053684;28;20639;-70
2023/01/21 08:30:30;;;;;;;0.30;0.30;;;2.90;80.10;;;;;;5053732;28;20166;-68
2023/01/21 08:32:56;;;;;;;0.43;0.43;;;3.10;76.00;;;;;;5053733;28;20447;-69
2023/01/21 08:35:22;;;;;;;7.30;1.40;;;3.40;74.80;;;;;;5053879;28;20166;-71
2023/01/21 08:37:48;;;;;;;0.40;0.40;;;3.80;72.60;;;;;;5053788;28;20166;-72
2023/01/21 08:40:14;;;;;;;0.40;0.40;;;4.00;72.00;;;;;;5053523;28;20181;-69
2023/01/21 08:42:39;;;;;;;0.40;0.40;;;4.20;69.30;;;;;;5053716;28;20171;-71
2023/01/21 08:45:06;;;;;;;0.40;0.40;;;4.30;67.90;;;;;;5052253;28;20229;-70
2023/01/21 08:47:31;;;;;;;0.57;0.57;;;4.20;67.30;;;;;;5053634;28;20529;-71
2023/01/21 08:49:57;;;;;;;0.40;0.40;;;4.50;67.30;;;;;;5053391;28;20276;-68
2023/01/21 08:52:22;;;;;;;0.70;0.70;;;4.70;65.70;;;;;;5052109;28;20170;-71
2023/01/21 08:54:48;;;;;;;0.40;0.40;;;4.60;64.90;;;;;;5053469;28;20238;-71
2023/01/21 08:57:14;;;;;;;0.40;0.40;;;4.20;65.60;;;;;;5053381;28;20178;-70
2023/01/21 08:59:39;;;;;;;2.00;0.93;;;4.00;66.50;;;;;;5053327;28;20194;-70
2023/01/21 09:02:05;;;;;;;0.40;0.40;;;4.20;65.50;;;;;;5053303;28;20647;-72
2023/01/21 09:04:31;;;;;;;0.30;0.30;;;4.30;64.80;;;;;;5053399;28;20205;-69
2023/01/21 09:06:57;;;;;;;0.50;0.50;;;4.30;63.20;;;;;;5053447;28;20688;-69
2023/01/21 09:09:22;;;;;;;1.80;1.10;;;4.30;63.60;;;;;;5053358;28;20273;-71
2023/01/21 09:11:48;;;;;;;0.40;0.40;;;4.20;63.60;;;;;;5053056;28;20162;-72
2023/01/21 09:14:13;;;;;;;1.10;1.00;;;4.60;65.60;;;;;;5053210;28;20231;-68
2023/01/21 09:16:39;;;;;;;0.40;0.40;;;5.20;63.70;;;;;;5053318;28;20179;-72
2023/01/21 09:19:04;;;;;;;0.50;0.50;;;5.50;61.80;;;;;;5052827;28;20299;-68
2023/01/21 09:21:33;;;;;;;0.90;0.80;;;6.20;60.70;;;;;;5055535;28;20171;-69
2023/01/21 09:23:59;;;;;;;0.35;0.35;;;5.80;59.50;;;;;;5055771;28;20206;-71
2023/01/21 09:26:25;;;;;;;0.30;0.30;;;6.20;59.90;;;;;;5057104;28;20253;-69
2023/01/21 09:28:56;;;;;;;0.40;0.40;;;6.20;58.90;;;;;;5056991;28;20431;-69
2023/01/21 09:31:22;;;;;;;0.40;0.40;;;6.40;57.90;;;;;;5057130;28;20749;-70
2023/01/21 09:33:51;;;;;;;0.70;0.70;;;6.40;57.50;;;;;;5056961;28;20601;-71
2023/01/21 09:36:20;;;;;;;0.30;0.30;;;6.70;57.70;;;;;;5057111;28;20180;-71
2023/01/21 09:38:47;;;;;;;0.40;0.40;;;6.80;56.40;;;;;;5056828;28;20197;-72
2023/01/21 09:41:41;;;;;;;0.30;0.30;;;6.70;56.40;;;;;;5056863;28;20166;-69
2023/01/21 09:44:22;;;;;;;0.40;0.40;;;6.30;56.60;;;;;;5056828;28;20621;-69
2023/01/21 09:46:59;;;;;;;0.55;0.50;;;5.20;57.10;;;;;;5056982;28;20200;-71
2023/01/21 09:49:31;;;;;;;0.73;0.73;;;4.20;59.40;;;;;;5056693;28;20187;-69
2023/01/21 09:52:07;;;;;;;0.40;0.40;;;3.70;62.20;;;;;;5055321;28;20171;-70
2023/01/21 09:54:35;;;;;;;0.40;0.40;;;3.60;63.80;;;;;;5056890;28;20182;-70
2023/01/21 09:57:31;;;;;;;0.40;0.40;;;3.70;64.00;;;;;;5056761;28;20538;-72
2023/01/21 10:00:26;;;;;;;0.40;0.40;;;3.80;63.30;;;;;;5056493;28;20616;-70
2023/01/21 10:03:07;;;;;;;1.58;1.30;;;3.80;63.50;;;;;;5056323;28;20545;-70
2023/01/21 10:05:49;;;;;;;0.40;0.40;;;3.40;64.10;;;;;;5056628;28;20193;-71
2023/01/21 10:08:20;;;;;;;0.30;0.30;;;3.90;64.80;;;;;;5056316;28;20189;-68
2023/01/21 10:11:20;;;;;;;0.40;0.40;;;4.30;63.90;;;;;;5056489;28;20167;-69
2023/01/21 10:14:17;;;;;;;0.40;0.40;;;5.40;62.90;;;;;;5056339;28;20180;-71
2023/01/21 10:17:00;;;;;;;0.30;0.30;;;6.40;61.00;;;;;;5056401;28;20530;-68
2023/01/21 10:19:38;;;;;;;0.40;0.40;;;7.10;58.40;;;;;;5055984;28;20262;-70
2023/01/21 10:22:11;;;;;;;0.40;0.40;;;6.40;57.40;;;;;;5056106;28;20200;-70
2023/01/21 10:24:45;;;;;;;0.40;0.40;;;6.30;57.50;;;;;;5056230;28;20196;-71
2023/01/21 10:27:16;;;;;;;0.50;0.50;;;6.00;58.90;;;;;;5056257;28;20172;-70
2023/01/21 10:29:43;;;;;;;0.40;0.40;;;5.70;58.80;;;;;;5055917;28;20180;-70
2023/01/21 10:32:14;;;;;;;0.40;0.40;;;5.80;59.70;;;;;;5054891;28;20254;-70
2023/01/21 10:34:51;;;;;;;0.40;0.40;;;5.60;60.30;;;;;;5056058;28;20175;-69
2023/01/21 10:37:21;;;;;;;0.47;0.47;;;5.00;59.40;;;;;;5054633;28;20187;-72
2023/01/21 10:40:03;;;;;;;0.40;0.40;;;4.90;61.80;;;;;;5055751;28;20667;-71
2023/01/21 10:42:46;;;;;;;0.30;0.30;;;5.30;60.80;;;;;;5055660;28;20179;-69
2023/01/21 10:45:23;;;;;;;0.30;0.30;;;5.70;60.60;;;;;;5054559;28;20686;-72
2023/01/21 10:48:04;;;;;;;0.40;0.40;;;5.70;65.10;;;;;;5055608;28;20247;-69
2023/01/21 10:50:38;;;;;;;0.40;0.40;;;5.80;60.40;;;;;;5055594;28;20666;-68
2023/01/21 10:53:18;;;;;;;1.27;1.17;;;6.20;59.40;;;;;;5055344;28;20600;-70
2023/01/21 10:56:02;;;;;;;0.30;0.30;;;6.40;58.00;;;;;;5055726;28;20195;-71
2023/01/21 10:58:30;;;;;;;0.40;0.40;;;6.40;58.10;;;;;;5055450;28;20193;-71
2023/01/21 11:01:00;;;;;;;0.30;0.30;;;6.10;57.70;;;;;;5055401;28;20190;-70
2023/01/21 11:03:37;;;;;;;0.80;0.80;;;5.90;57.70;;;;;;5055365;28;20205;-70
2023/01/21 11:06:07;;;;;;;1.55;1.55;;;5.60;58.80;;;;;;5055259;28;20162;-69
2023/01/21 11:08:33;;;;;;;5.93;0.95;;;5.10;59.40;;;;;;5055608;28;20243;-71
2023/01/21 11:10:59;;;;;;;0.43;0.43;;;5.20;60.90;;;;;;5055551;28;20249;-70
2023/01/21 11:13:24;;;;;;;1.38;1.33;;;5.20;60.40;;;;;;5055108;28;20418;-70
2023/01/21 11:15:55;;;;;;;0.40;0.40;;;5.00;60.00;;;;;;5055279;28;20173;-71
2023/01/21 11:18:25;;;;;;;0.40;0.40;;;5.10;60.40;;;;;;5055098;28;20186;-69
2023/01/21 11:20:53;;;;;;;1.35;1.20;;;5.10;59.90;;;;;;5055163;28;20185;-71
2023/01/21 11:23:27;;;;;;;0.70;0.70;;;5.20;60.70;;;;;;5054733;28;20174;-69
2023/01/21 11:26:19;;;;;;;2.40;0.85;;;5.30;61.70;;;;;;5055205;28;20170;-71
2023/01/21 11:28:45;;;;;;;0.40;0.40;;;5.00;60.20;;;;;;5054597;28;20205;-71
2023/01/21 11:31:14;;;;;;;0.50;0.50;;;4.80;60.50;;;;;;5054799;28;20163;-68
2023/01/21 11:33:42;;;;;;;1.05;1.05;;;4.20;60.00;;;;;;5054595;28;20163;-70
2023/01/21 11:36:12;;;;;;;0.50;0.50;;;4.20;62.50;;;;;;5054598;28;20265;-71
2023/01/21 11:38:39;;;;;;;0.52;0.52;;;4.10;63.20;;;;;;5054851;28;20559;-69
2023/01/21 11:41:10;;;;;;;0.40;0.40;;;4.20;63.90;;;;;;5054655;28;20227;-72
2023/01/21 11:43:40;;;;;;;0.45;0.45;;;4.30;61.80;;;;;;5054094;28;20252;-71
2023/01/21 11:46:29;;;;;;;0.50;0.50;;;4.40;62.50;;;;;;5054541;28;20174;-72
2023/01/21 11:49:15;;;;;;;0.40;0.40;;;4.20;63.50;;;;;;5054360;28;20194;-70
2023/01/21 11:51:44;;;;;;;1.15;0.90;;;4.00;62.30;;;;;;5053854;28;20550;-69
2023/01/21 11:54:13;;;;;;;0.40;0.40;;;3.90;61.90;;;;;;5054785;28;20174;-71
2023/01/21 11:56:44;;;;;;;0.50;0.50;;;3.70;63.30;;;;;;5054353;28;20172;-69
2023/01/21 11:59:17;;;;;;;1.00;1.00;;;3.90;62.30;;;;;;5054247;28;20230;-71
2023/01/21 12:02:08;;;;;;;2.78;0.82;;;3.80;62.50;;;;;;5054408;28;20259;-69
2023/01/21 12:04:34;;;;;;;0.40;0.40;;;3.70;63.10;;;;;;5054285;28;20197;-71
2023/01/21 12:07:01;;;;;;;0.38;0.38;;;3.70;64.70;;;;;;5054096;28;20195;-70
2023/01/21 12:09:28;;;;;;;0.40;0.40;;;3.60;63.50;;;;;;5054063;28;20565;-70
2023/01/21 12:12:22;;;;;;;0.40;0.40;;;3.30;62.30;;;;;;5054051;28;20606;-68
2023/01/21 12:14:57;;;;;;;0.40;0.40;;;2.60;64.30;;;;;;5054171;28;20173;-71
2023/01/21 12:17:56;;;;;;;0.40;0.40;;;2.60;65.60;;;;;;5053872;28;20181;-70
2023/01/21 12:20:39;;;;;;;0.50;0.50;;;2.70;66.30;;;;;;5053856;28;20186;-72
2023/01/21 12:23:19;;;;;;;1.13;1.02;;;2.90;66.10;;;;;;5053717;28;20580;-71
2023/01/21 12:25:56;;;;;;;0.40;0.40;;;3.10;65.50;;;;;;5053798;28;20711;-72
2023/01/21 12:29:01;;;;;;;0.40;0.40;;;3.10;64.30;;;;;;5053999;28;20273;-68
2023/01/21 12:31:32;;;;;;;0.40;0.40;;;3.00;66.70;;;;;;5034289;28;20783;-71
2023/01/21 12:34:21;;;;;;;0.40;0.40;;;2.90;65.40;;;;;;5053613;28;20174;-70
2023/01/21 12:36:54;;;;;;;0.40;0.40;;;2.80;66.70;;;;;;5053746;28;20201;-70
2023/01/21 12:39:35;;;;;;;0.40;0.40;;;2.90;67.00;;;;;;5053777;28;20272;-72
2023/01/21 12:42:17;;;;;;;0.40;0.40;;;2.60;65.20;;;;;;5052172;28;20710;-72
2023/01/21 12:44:54;;;;;;;0.40;0.40;;;2.50;65.30;;;;;;5053584;28;20660;-68
2023/01/21 12:47:30;;;;;;;0.40;0.40;;;2.80;66.00;;;;;;5053777;28;20260;-70
2023/01/21 12:50:23;;;;;;;0.55;0.55;;;3.00;65.60;;;;;;5053274;28;20192;-69
2023/01/21 12:53:08;;;;;;;0.40;0.40;;;3.30;65.90;;;;;;5051945;28;20635;-70
2023/01/21 12:56:00;;;;;;;0.40;0.40;;;3.30;65.00;;;;;;5053128;28;20200;-70
2023/01/21 12:58:31;;;;;;;0.40;0.40;;;2.80;64.60;;;;;;5053473;28;20192;-71
2023/01/21 13:01:03;;;;;;;0.35;0.35;;;2.30;64.10;;;;;;5053661;28;20547;-72
2023/01/21 13:03:54;;;;;;;1.10;1.10;;;1.90;66.00;;;;;;5053146;28;20660;-69
2023/01/21 13:06:41;;;;;;;0.40;0.40;;;1.60;65.90;;;;;;5053528;28;20173;-71
2023/01/21 13:09:18;;;;;;;0.40;0.40;;;1.40;67.20;;;;;;5053669;28;20560;-70
2023/01/21 13:12:17;;;;;;;0.40;0.40;;;1.10;67.30;;;;;;5053182;28;20168;-71